createdAt,value
2022-08-11T15:05:58.456Z,617.2
2022-08-11T15:07:01.003Z,727.4
2022-08-11T15:08:04.684Z,736.3
2022-08-11T15:09:09.170Z,729.7
2022-08-11T15:10:13.607Z,736.6
2022-08-11T15:11:14.330Z,758.6
2022-08-11T15:12:31.423Z,777.5
2022-08-11T15:13:20.668Z,783.5
2022-08-11T15:14:24.234Z,796.8
2022-08-11T15:15:27.688Z,811.4
2022-08-11T15:16:30.985Z,867.9
2022-08-11T15:17:35.348Z,905.0
2022-08-11T15:18:37.177Z,919.9
2022-08-11T15:19:41.478Z,902.3
2022-08-11T15:20:44.497Z,896.4
2022-08-11T15:21:48.426Z,874.7
2022-08-11T15:22:51.284Z,845.3
2022-08-11T15:23:54.557Z,829.6
2022-08-11T15:24:57.853Z,814.3
2022-08-11T15:26:00.933Z,810.7
2022-08-11T15:27:03.983Z,770.8
2022-08-11T15:31:08.042Z,737.3
2022-08-11T15:32:11.488Z,683.9
2022-08-11T15:33:14.871Z,678.6
2022-08-11T15:34:18.286Z,676.9
2022-08-11T15:35:21.258Z,674.4
2022-08-11T15:36:24.352Z,669.5
2022-08-11T15:37:27.906Z,659.6
2022-08-11T15:38:30.424Z,648.5
2022-08-11T15:39:36.289Z,627.3
2022-08-11T15:40:39.528Z,600.9
2022-08-11T15:41:42.404Z,590.4
2022-08-11T15:42:45.651Z,586.8
2022-08-11T15:43:49.567Z,587.6
2022-08-11T15:45:02.516Z,587.8
2022-08-11T15:45:57.157Z,591.0
2022-08-11T15:47:01.043Z,592.2
2022-08-11T15:48:05.650Z,587.2
2022-08-11T15:49:07.839Z,580.5
2022-08-11T15:50:13.523Z,567.3
2022-08-11T15:51:14.219Z,553.9
2022-08-11T15:52:17.241Z,541.9
2022-08-11T15:53:20.305Z,539.5
2022-08-11T15:54:23.602Z,537.5
2022-08-11T15:55:26.704Z,533.3
2022-08-11T15:56:29.765Z,535.2
2022-08-11T15:57:39.890Z,538.5
2022-08-11T15:58:36.130Z,540.0
2022-08-11T15:59:42.664Z,542.4
2022-08-11T16:00:42.902Z,546.2
2022-08-11T16:01:46.228Z,548.5
2022-08-11T16:02:49.286Z,556.6
2022-08-11T16:04:05.730Z,563.7
2022-08-11T16:04:57.031Z,567.2
2022-08-11T16:06:00.543Z,576.6
2022-08-11T16:07:04.051Z,597.5
2022-08-11T16:08:07.342Z,602.2
2022-08-11T16:09:17.952Z,599.3
2022-08-11T16:10:17.969Z,597.8
2022-08-11T16:11:19.614Z,599.9
2022-08-11T16:12:22.887Z,604.4
2022-08-11T16:13:30.130Z,615.9
2022-08-11T16:14:32.967Z,601.3
2022-08-11T16:15:36.098Z,588.7
2022-08-11T16:16:39.315Z,567.3
2022-08-11T16:17:43.207Z,534.5
2022-08-11T16:18:46.284Z,509.9
2022-08-11T16:19:49.403Z,505.0
2022-08-11T16:20:53.046Z,499.6
2022-08-11T16:21:56.939Z,506.2
2022-08-11T16:23:02.266Z,499.7
2022-08-11T16:24:04.146Z,479.9
2022-08-11T16:25:58.906Z,471.5
2022-08-11T16:27:14.300Z,463.1
2022-08-11T16:31:17.725Z,453.3
2022-08-11T16:32:20.781Z,448.4
2022-08-11T16:33:49.226Z,440.2
2022-08-11T16:34:27.179Z,436.0
2022-08-11T16:35:30.194Z,439.1
2022-08-11T16:36:33.538Z,444.3
2022-08-11T16:37:37.218Z,449.3
2022-08-11T16:38:40.505Z,456.5
2022-08-11T16:39:44.225Z,457.9
2022-08-11T16:40:47.695Z,453.3
2022-08-11T16:41:51.520Z,446.7
2022-08-11T16:42:59.828Z,440.0
